Time;durP1;ratioP1;P1;durP2;ratioP2;P2;SDS_P1;SDS_P2;PMS_P1;PMS_P2;Temp;Humidity;BMP_temperature;BMP_pressure;BME280_temperature;BME280_humidity;BME280_pressure;Samples;Min_cycle;Max_cycle;Signal;HPM_P1;HPM_P2
2023/06/14 00:01:28;;;;;;;3.00;2.70;;;18.00;83.60;;;;;;7840648;28;20194;-86
2023/06/14 00:05:14;;;;;;;6.65;2.22;;;18.00;83.60;;;;;;7842162;28;20312;-87
2023/06/14 00:09:00;;;;;;;4.28;2.50;;;17.90;83.90;;;;;;7843761;28;20689;-87
2023/06/14 00:12:46;;;;;;;3.72;2.05;;;17.90;84.10;;;;;;7842436;28;20192;-87
2023/06/14 00:16:33;;;;;;;9.70;2.47;;;17.80;84.10;;;;;;7841327;28;20705;-87
2023/06/14 00:20:19;;;;;;;3.53;2.30;;;17.80;84.30;;;;;;7842037;28;20182;-87
2023/06/14 00:24:05;;;;;;;4.15;2.38;;;17.70;84.40;;;;;;7812011;28;20229;-87
2023/06/14 00:27:50;;;;;;;3.35;2.50;;;17.60;84.70;;;;;;7809432;28;20206;-88
2023/06/14 00:31:36;;;;;;;3.50;2.47;;;17.60;84.80;;;;;;7830974;28;20182;-87
2023/06/14 00:35:22;;;;;;;2.65;2.38;;;17.50;85.00;;;;;;7841583;28;20702;-87
2023/06/14 00:39:08;;;;;;;3.90;2.47;;;17.50;85.20;;;;;;7840554;28;20558;-88
2023/06/14 00:42:54;;;;;;;3.50;2.22;;;17.40;85.20;;;;;;7840950;28;20213;-87
2023/06/14 00:46:40;;;;;;;4.75;2.50;;;17.40;85.40;;;;;;7846441;28;20192;-87
2023/06/14 00:50:26;;;;;;;3.22;2.55;;;17.30;85.60;;;;;;7846649;28;20737;-87
2023/06/14 00:54:11;;;;;;;5.07;2.40;;;17.20;85.70;;;;;;7865591;28;20302;-88
2023/06/14 00:57:57;;;;;;;3.13;2.33;;;17.20;85.90;;;;;;7877491;28;20186;-87
2023/06/14 01:01:43;;;;;;;5.20;2.45;;;17.10;85.80;;;;;;7845647;28;20343;-87
2023/06/14 01:05:30;;;;;;;3.22;2.45;;;17.00;86.20;;;;;;7846521;28;20217;-87
2023/06/14 01:09:28;;;;;;;2.60;2.30;;;17.00;86.20;;;;;;7830056;28;20210;-87
2023/06/14 01:13:24;;;;;;;3.58;2.65;;;17.00;86.40;;;;;;7826960;28;20224;-87
2023/06/14 01:17:16;;;;;;;2.85;2.50;;;16.90;86.40;;;;;;7845386;28;20651;-87
2023/06/14 01:21:05;;;;;;;4.43;2.80;;;16.90;86.60;;;;;;7848385;28;20188;-86
2023/06/14 01:24:54;;;;;;;3.35;2.55;;;16.90;86.60;;;;;;7852855;28;20200;-86
2023/06/14 01:28:40;;;;;;;2.70;2.40;;;16.90;86.70;;;;;;7847009;28;20212;-87
2023/06/14 01:32:29;;;;;;;3.45;2.80;;;16.80;86.80;;;;;;7842467;28;20265;-87
2023/06/14 01:36:15;;;;;;;4.40;2.90;;;16.80;86.90;;;;;;7835440;28;20285;-87
2023/06/14 01:40:03;;;;;;;4.13;2.50;;;16.70;87.10;;;;;;7843116;28;20715;-87
2023/06/14 01:43:51;;;;;;;3.75;3.00;;;16.60;87.20;;;;;;7827593;28;20208;-87
2023/06/14 01:47:36;;;;;;;3.75;3.00;;;16.60;87.40;;;;;;7832848;28;20194;-87
2023/06/14 01:51:22;;;;;;;3.00;2.70;;;16.60;87.40;;;;;;7816128;28;20205;-87
2023/06/14 01:55:09;;;;;;;4.90;3.00;;;16.50;87.40;;;;;;7821751;28;20194;-87
2023/06/14 01:58:55;;;;;;;3.35;2.92;;;16.50;87.50;;;;;;7844301;28;20235;-87
2023/06/14 02:02:41;;;;;;;5.00;3.15;;;16.40;87.60;;;;;;7842229;28;20288;-87
2023/06/14 02:06:27;;;;;;;2.92;2.72;;;16.40;87.80;;;;;;7841641;28;20229;-87
2023/06/14 02:10:14;;;;;;;4.05;2.85;;;16.40;87.80;;;;;;7842728;28;20695;-86
2023/06/14 02:14:01;;;;;;;3.55;2.63;;;16.30;87.80;;;;;;7842280;28;20197;-86
2023/06/14 02:17:47;;;;;;;4.28;2.60;;;16.30;88.00;;;;;;7831230;28;20183;-87
2023/06/14 02:21:32;;;;;;;4.28;3.10;;;16.20;88.10;;;;;;7832127;28;20209;-87
2023/06/14 02:25:18;;;;;;;4.07;2.90;;;16.20;88.20;;;;;;7841241;28;20218;-87
2023/06/14 02:29:05;;;;;;;5.43;2.83;;;16.10;88.30;;;;;;7841530;28;20734;-87
2023/06/14 02:32:51;;;;;;;8.35;3.13;;;16.10;88.50;;;;;;7840865;28;20320;-87
2023/06/14 02:36:41;;;;;;;4.13;3.20;;;16.00;88.60;;;;;;7840796;28;20170;-87
2023/06/14 02:40:26;;;;;;;4.32;3.10;;;16.00;88.60;;;;;;7840911;28;20186;-87
2023/06/14 02:44:14;;;;;;;4.25;2.90;;;15.90;88.70;;;;;;7841662;28;20733;-87
2023/06/14 02:47:59;;;;;;;3.95;2.85;;;15.90;88.90;;;;;;7840038;28;20229;-87
2023/06/14 02:51:45;;;;;;;4.50;3.08;;;15.80;88.90;;;;;;7827666;28;20178;-87
2023/06/14 02:55:30;;;;;;;5.95;2.92;;;15.80;89.00;;;;;;7810885;28;20538;-86
2023/06/14 02:59:16;;;;;;;6.20;3.20;;;15.70;89.00;;;;;;7832612;28;20547;-87
2023/06/14 03:03:04;;;;;;;5.60;3.30;;;15.60;89.00;;;;;;7830262;28;20267;-86
2023/06/14 03:06:50;;;;;;;3.45;3.00;;;15.50;89.10;;;;;;7842481;28;20229;-87
2023/06/14 03:10:35;;;;;;;3.25;2.88;;;15.50;89.20;;;;;;7841515;28;20228;-88
2023/06/14 03:14:22;;;;;;;3.28;2.80;;;15.40;89.30;;;;;;7843900;28;20201;-88
2023/06/14 03:18:09;;;;;;;4.97;3.05;;;15.40;89.50;;;;;;7841412;28;20193;-87
2023/06/14 03:21:57;;;;;;;3.95;3.03;;;15.40;89.50;;;;;;7842064;28;20186;-86
2023/06/14 03:25:42;;;;;;;3.42;3.00;;;15.30;89.70;;;;;;7848559;28;20331;-86
2023/06/14 03:29:28;;;;;;;6.50;3.50;;;15.30;90.00;;;;;;7843638;28;20236;-87
2023/06/14 03:33:15;;;;;;;3.47;3.10;;;15.20;90.00;;;;;;7844406;28;20229;-86
2023/06/14 03:37:01;;;;;;;4.07;3.40;;;15.20;90.00;;;;;;7849031;28;20177;-86
2023/06/14 03:40:46;;;;;;;4.90;3.20;;;15.20;90.10;;;;;;7841929;28;20852;-87
2023/06/14 03:44:32;;;;;;;4.10;3.60;;;15.10;90.20;;;;;;7839851;28;20198;-87
2023/06/14 03:48:18;;;;;;;4.00;3.10;;;15.10;90.20;;;;;;7839349;28;20206;-87
2023/06/14 03:52:04;;;;;;;4.90;3.55;;;15.10;90.30;;;;;;7839512;28;20273;-87
2023/06/14 03:55:52;;;;;;;4.47;3.15;;;15.10;90.30;;;;;;7838687;28;20280;-87
2023/06/14 03:59:41;;;;;;;7.63;3.50;;;15.10;90.30;;;;;;7838692;28;20682;-87
2023/06/14 04:03:29;;;;;;;4.32;3.58;;;15.00;90.30;;;;;;7838197;28;20237;-87
2023/06/14 04:07:19;;;;;;;6.10;4.47;;;15.10;90.40;;;;;;7840009;28;20615;-87
2023/06/14 04:11:04;;;;;;;4.20;3.42;;;15.00;90.40;;;;;;7838675;28;20229;-87
2023/06/14 04:14:51;;;;;;;4.45;3.83;;;15.00;90.50;;;;;;7837113;28;20200;-88
2023/06/14 04:18:36;;;;;;;3.97;3.60;;;15.00;90.60;;;;;;7840431;28;20184;-87
2023/06/14 04:22:22;;;;;;;4.32;3.30;;;14.90;90.60;;;;;;7844153;28;20186;-88
2023/06/14 04:26:10;;;;;;;4.70;3.70;;;14.90;90.70;;;;;;7843578;28;20198;-87
2023/06/14 04:29:59;;;;;;;5.57;3.67;;;14.90;90.80;;;;;;7844662;28;20202;-87
2023/06/14 04:33:46;;;;;;;4.82;4.03;;;14.90;91.20;;;;;;7841617;28;20606;-86
2023/06/14 04:37:33;;;;;;;6.55;3.85;;;14.80;90.80;;;;;;7843747;28;20175;-87
2023/06/14 04:41:19;;;;;;;5.57;4.10;;;14.80;90.90;;;;;;7842918;28;20170;-86
2023/06/14 04:45:06;;;;;;;6.50;4.00;;;14.80;91.10;;;;;;7841707;28;20296;-87
2023/06/14 04:48:52;;;;;;;6.10;3.90;;;14.70;91.10;;;;;;7835643;28;20221;-87
2023/06/14 04:52:38;;;;;;;5.20;3.47;;;14.80;91.10;;;;;;7841639;28;20186;-87
2023/06/14 04:56:29;;;;;;;6.85;4.00;;;14.80;91.10;;;;;;7842802;28;20206;-88
2023/06/14 05:00:15;;;;;;;5.63;4.13;;;14.80;91.10;;;;;;7842244;28;20254;-87
2023/06/14 05:04:00;;;;;;;5.50;4.53;;;14.80;91.40;;;;;;7841762;28;20217;-87
2023/06/14 05:07:46;;;;;;;5.28;4.43;;;14.70;91.40;;;;;;7840984;28;20666;-88
2023/06/14 05:11:32;;;;;;;5.45;4.13;;;14.70;91.30;;;;;;7839956;28;20685;-88
2023/06/14 05:15:18;;;;;;;5.35;4.00;;;14.70;91.30;;;;;;7846297;28;20685;-88
2023/06/14 05:19:06;;;;;;;5.20;4.05;;;14.80;91.30;;;;;;7810758;28;20205;-87
2023/06/14 05:22:56;;;;;;;5.68;4.25;;;14.80;91.30;;;;;;7810946;28;20591;-89
2023/06/14 05:26:42;;;;;;;6.22;4.55;;;14.80;91.40;;;;;;7830688;28;20183;-90
2023/06/14 05:30:30;;;;;;;4.45;3.95;;;14.80;91.50;;;;;;7841017;28;20210;-90
2023/06/14 05:34:16;;;;;;;5.70;4.57;;;14.80;91.40;;;;;;7841921;28;20228;-89
2023/06/14 05:38:01;;;;;;;4.85;4.10;;;14.90;91.30;;;;;;7812963;28;20174;-89
2023/06/14 05:41:47;;;;;;;5.32;3.97;;;15.00;91.60;;;;;;7837691;28;20190;-89
2023/06/14 05:45:32;;;;;;;5.30;4.20;;;15.00;91.60;;;;;;7841525;28;20229;-90
2023/06/14 05:49:18;;;;;;;7.78;4.15;;;15.00;91.40;;;;;;7842206;28;20572;-90
2023/06/14 05:53:04;;;;;;;6.60;4.88;;;15.10;91.40;;;;;;7842628;28;20226;-89
2023/06/14 05:56:49;;;;;;;4.95;4.07;;;15.20;91.80;;;;;;7841924;28;20268;-90
2023/06/14 06:00:35;;;;;;;8.60;5.22;;;15.30;91.50;;;;;;7842726;28;20185;-89
2023/06/14 06:04:21;;;;;;;5.88;4.57;;;15.30;92.30;;;;;;7842427;28;20221;-90
2023/06/14 06:08:07;;;;;;;7.43;5.53;;;15.40;92.50;;;;;;7841917;28;20202;-90
2023/06/14 06:11:52;;;;;;;6.18;5.07;;;15.60;92.50;;;;;;7842486;28;20224;-89
2023/06/14 06:15:38;;;;;;;9.27;5.53;;;15.70;92.50;;;;;;7840505;28;20220;-90
2023/06/14 06:19:24;;;;;;;7.05;5.32;;;15.80;92.50;;;;;;7824738;28;20197;-88
2023/06/14 06:23:09;;;;;;;5.80;5.20;;;15.90;93.00;;;;;;7841917;28;20202;-90
2023/06/14 06:26:55;;;;;;;7.45;5.07;;;15.90;92.80;;;;;;7841718;28;20185;-90
2023/06/14 06:30:41;;;;;;;6.80;5.18;;;15.70;92.70;;;;;;7820109;28;20680;-90
2023/06/14 06:34:27;;;;;;;6.50;5.57;;;15.80;93.00;;;;;;7836304;28;20190;-90
2023/06/14 06:38:13;;;;;;;5.32;4.80;;;16.00;92.70;;;;;;7841220;28;20268;-90
2023/06/14 06:41:59;;;;;;;5.35;4.78;;;16.20;93.00;;;;;;7841150;28;20189;-91
2023/06/14 06:45:45;;;;;;;6.90;5.53;;;16.40;92.90;;;;;;7841120;28;20217;-89
2023/06/14 06:49:31;;;;;;;7.32;5.10;;;16.50;92.90;;;;;;7842281;28;20206;-90
2023/06/14 06:53:18;;;;;;;5.90;4.93;;;16.80;92.70;;;;;;7841660;28;20201;-89
2023/06/14 06:57:04;;;;;;;7.32;5.25;;;17.00;92.00;;;;;;7840659;28;20540;-88
2023/06/14 07:00:50;;;;;;;9.70;4.85;;;17.20;91.40;;;;;;7844901;28;20200;-88
2023/06/14 07:04:35;;;;;;;7.00;5.18;;;17.50;91.10;;;;;;7840425;28;20233;-89
2023/06/14 07:08:21;;;;;;;7.60;4.47;;;17.70;90.90;;;;;;7841656;28;20197;-88
2023/06/14 07:12:07;;;;;;;7.18;5.13;;;17.80;90.00;;;;;;7857578;28;20427;-88
2023/06/14 07:15:59;;;;;;;4.95;4.43;;;18.00;89.00;;;;;;7834834;28;20202;-88
2023/06/14 07:19:45;;;;;;;6.00;4.53;;;18.10;87.70;;;;;;7838436;28;20193;-88
2023/06/14 07:23:32;;;;;;;5.30;4.55;;;18.20;87.80;;;;;;7838205;28;20286;-87
2023/06/14 07:27:18;;;;;;;7.20;5.53;;;18.40;87.20;;;;;;7837256;28;20182;-87
2023/06/14 07:31:03;;;;;;;6.00;5.10;;;18.50;85.70;;;;;;7837765;28;20683;-88
2023/06/14 07:34:49;;;;;;;5.03;4.53;;;18.60;85.10;;;;;;7830192;28;20285;-88
2023/06/14 07:38:36;;;;;;;5.07;4.25;;;18.70;84.70;;;;;;7812829;28;20183;-87
2023/06/14 07:42:22;;;;;;;4.07;3.60;;;18.90;84.60;;;;;;7807747;28;20237;-87
2023/06/14 07:46:08;;;;;;;6.15;4.32;;;19.00;82.80;;;;;;7836607;28;20197;-87
2023/06/14 07:49:54;;;;;;;6.55;3.80;;;19.00;82.10;;;;;;7837479;28;20213;-86
2023/06/14 07:53:41;;;;;;;4.35;3.78;;;19.10;81.60;;;;;;7855981;28;20207;-88
2023/06/14 07:57:27;;;;;;;4.20;3.60;;;19.20;81.00;;;;;;7837893;28;20801;-88
2023/06/14 08:01:13;;;;;;;4.03;3.20;;;19.40;81.40;;;;;;7836801;28;20753;-87
2023/06/14 08:04:59;;;;;;;3.00;2.70;;;19.50;79.70;;;;;;7836928;28;20252;-87
2023/06/14 08:08:44;;;;;;;3.03;2.70;;;19.60;78.80;;;;;;7837286;28;20205;-87
2023/06/14 08:12:30;;;;;;;6.97;3.08;;;19.60;78.70;;;;;;7837617;28;20185;-87
2023/06/14 08:16:16;;;;;;;3.97;2.83;;;19.60;77.40;;;;;;7836249;28;20248;-87
2023/06/14 08:20:05;;;;;;;4.07;2.95;;;19.70;76.70;;;;;;7837093;28;20178;-88
2023/06/14 08:23:52;;;;;;;3.83;3.40;;;19.90;78.10;;;;;;7839016;28;20228;-88
2023/06/14 08:27:38;;;;;;;4.55;3.13;;;20.00;78.60;;;;;;7838598;28;20194;-87
2023/06/14 08:31:25;;;;;;;3.60;3.30;;;20.00;78.00;;;;;;7837141;28;20346;-88
2023/06/14 08:35:12;;;;;;;5.80;3.53;;;20.00;77.00;;;;;;7837506;28;20221;-87
2023/06/14 08:38:58;;;;;;;4.43;3.22;;;19.80;77.50;;;;;;7837394;28;20537;-88
2023/06/14 08:42:45;;;;;;;4.75;2.92;;;19.70;77.20;;;;;;7837957;28;20194;-87
2023/06/14 08:46:33;;;;;;;6.88;3.35;;;19.70;76.10;;;;;;7846112;28;20204;-87
2023/06/14 08:50:23;;;;;;;4.22;2.75;;;19.70;78.20;;;;;;7868938;28;20604;-87
2023/06/14 08:54:12;;;;;;;4.05;3.65;;;19.90;77.40;;;;;;7882585;28;20193;-87
2023/06/14 08:57:58;;;;;;;3.38;2.70;;;20.00;77.40;;;;;;7836702;28;20178;-87
2023/06/14 09:01:45;;;;;;;3.38;3.08;;;20.10;77.80;;;;;;7836360;28;20186;-86
2023/06/14 09:05:31;;;;;;;9.35;3.30;;;20.30;76.90;;;;;;7840120;28;20213;-87
2023/06/14 09:09:16;;;;;;;6.65;3.53;;;20.30;76.90;;;;;;7841582;28;20216;-86
2023/06/14 09:13:02;;;;;;;3.22;2.95;;;20.20;77.70;;;;;;7841667;28;20261;-87
2023/06/14 09:16:48;;;;;;;4.28;3.20;;;20.20;78.20;;;;;;7841292;28;20174;-87
2023/06/14 09:20:33;;;;;;;3.42;3.13;;;20.20;79.20;;;;;;7841126;28;20709;-88
2023/06/14 09:24:19;;;;;;;3.78;3.05;;;20.30;78.30;;;;;;7842764;28;20292;-87
2023/06/14 09:28:07;;;;;;;4.97;3.17;;;20.20;77.20;;;;;;7845047;28;20271;-88
2023/06/14 09:31:53;;;;;;;4.15;3.20;;;20.30;78.10;;;;;;7846191;28;20185;-88
2023/06/14 09:35:39;;;;;;;4.55;3.60;;;20.30;76.90;;;;;;7852299;28;20206;-87
2023/06/14 09:39:25;;;;;;;4.97;3.90;;;20.40;78.00;;;;;;7845323;28;20200;-88
2023/06/14 09:43:10;;;;;;;5.75;3.72;;;20.40;76.70;;;;;;7843232;28;20202;-88
2023/06/14 09:46:57;;;;;;;4.10;3.70;;;20.40;76.70;;;;;;7842515;28;20178;-87
2023/06/14 09:50:45;;;;;;;6.50;3.38;;;20.40;76.70;;;;;;7844276;28;20549;-88
2023/06/14 09:54:31;;;;;;;4.38;3.50;;;20.40;76.20;;;;;;7842563;28;20198;-88
2023/06/14 09:58:20;;;;;;;6.35;2.90;;;20.50;77.30;;;;;;7844136;28;20256;-89
2023/06/14 10:02:10;;;;;;;3.08;2.78;;;20.50;77.10;;;;;;7853928;28;20181;-87
2023/06/14 10:06:01;;;;;;;3.38;2.85;;;20.50;76.20;;;;;;7835142;28;20336;-87
2023/06/14 10:09:49;;;;;;;3.13;2.83;;;20.60;77.00;;;;;;7819396;28;20203;-88
2023/06/14 10:13:35;;;;;;;3.70;2.80;;;20.70;76.40;;;;;;7848450;28;20198;-88
2023/06/14 10:17:35;;;;;;;3.13;2.60;;;20.80;76.20;;;;;;7849566;28;20204;-88
2023/06/14 10:21:48;;;;;;;5.53;2.88;;;20.90;76.40;;;;;;7853428;28;20173;-88
2023/06/14 10:25:34;;;;;;;3.30;3.00;;;21.00;76.30;;;;;;7864438;28;20469;-89
2023/06/14 10:29:20;;;;;;;3.00;2.63;;;21.10;76.50;;;;;;7842739;28;20678;-88
2023/06/14 10:33:07;;;;;;;4.88;2.58;;;21.10;76.50;;;;;;7846059;28;20193;-88
2023/06/14 10:37:05;;;;;;;4.68;2.55;;;21.10;76.20;;;;;;7843549;28;20170;-88
2023/06/14 10:40:55;;;;;;;4.25;2.75;;;21.10;76.40;;;;;;7845668;28;20220;-88
2023/06/14 10:44:59;;;;;;;3.58;2.78;;;21.10;76.00;;;;;;7843899;28;20194;-88
2023/06/14 10:48:45;;;;;;;4.40;2.67;;;21.00;75.50;;;;;;7842937;28;20233;-88
2023/06/14 10:52:35;;;;;;;3.55;2.30;;;20.90;75.30;;;;;;7843792;28;20185;-88
2023/06/14 10:56:28;;;;;;;2.60;2.40;;;21.10;77.20;;;;;;7842844;28;20198;-88
2023/06/14 11:00:17;;;;;;;3.97;2.78;;;21.20;75.80;;;;;;7841888;28;20173;-89
2023/06/14 11:04:11;;;;;;;4.45;2.90;;;21.40;76.60;;;;;;7838471;28;20278;-89
2023/06/14 11:08:24;;;;;;;7.35;3.20;;;21.40;76.40;;;;;;7838793;28;20185;-89
2023/06/14 11:12:11;;;;;;;4.13;3.53;;;21.30;77.40;;;;;;7838570;28;20166;-89
2023/06/14 11:15:58;;;;;;;4.60;4.15;;;21.20;77.50;;;;;;7839173;28;20194;-90
2023/06/14 11:19:44;;;;;;;7.30;3.95;;;21.00;78.20;;;;;;7838666;28;20236;-89
2023/06/14 11:24:20;;;;;;;4.25;3.80;;;20.90;78.40;;;;;;7838472;28;20251;-89
2023/06/14 11:28:05;;;;;;;5.65;4.30;;;20.90;78.70;;;;;;7838084;28;20182;-89
2023/06/14 11:31:52;;;;;;;4.30;3.72;;;21.00;79.30;;;;;;7837756;28;20174;-88
2023/06/14 11:35:37;;;;;;;4.05;3.50;;;21.10;78.70;;;;;;7837351;28;20702;-89
2023/06/14 11:39:27;;;;;;;7.00;3.88;;;21.20;78.50;;;;;;7837659;28;20844;-88
2023/06/14 11:43:14;;;;;;;5.45;4.20;;;21.30;77.10;;;;;;7837897;28;20288;-89
2023/06/14 11:47:03;;;;;;;4.57;3.72;;;21.20;77.90;;;;;;7838204;28;20638;-89
2023/06/14 11:50:51;;;;;;;8.18;3.80;;;21.20;79.00;;;;;;7838365;28;20202;-89
2023/06/14 11:54:37;;;;;;;5.20;4.20;;;21.20;78.60;;;;;;7837646;28;20194;-89
2023/06/14 11:58:23;;;;;;;7.05;4.38;;;21.20;78.20;;;;;;7837456;28;20182;-89
2023/06/14 12:02:08;;;;;;;5.28;4.30;;;21.20;78.30;;;;;;7837314;28;20185;-88
2023/06/14 12:06:08;;;;;;;5.45;4.32;;;21.10;78.20;;;;;;7837168;28;20213;-89
2023/06/14 12:09:54;;;;;;;5.97;4.53;;;21.00;79.20;;;;;;7837691;28;20206;-88
2023/06/14 12:13:42;;;;;;;4.82;4.35;;;21.10;79.40;;;;;;7837282;28;20686;-89
2023/06/14 12:17:38;;;;;;;8.55;4.40;;;21.20;79.60;;;;;;7839194;28;20170;-90
2023/06/14 12:21:25;;;;;;;6.22;4.18;;;21.30;79.90;;;;;;7822352;28;20227;-90
2023/06/14 12:25:26;;;;;;;4.85;4.00;;;21.30;80.00;;;;;;7837907;28;20206;-91
2023/06/14 12:29:12;;;;;;;6.72;4.20;;;21.60;79.40;;;;;;7836890;28;20197;-90
2023/06/14 12:32:58;;;;;;;5.53;3.70;;;21.30;79.10;;;;;;7836860;28;20181;-90
2023/06/14 12:36:44;;;;;;;4.65;3.75;;;21.20;80.00;;;;;;7836915;28;20855;-89
2023/06/14 12:40:30;;;;;;;4.93;4.07;;;21.20;78.40;;;;;;7839179;28;20178;-90
2023/06/14 12:44:16;;;;;;;19.67;4.80;;;21.30;78.50;;;;;;7843068;28;20214;-89
2023/06/14 12:48:01;;;;;;;5.75;4.13;;;21.40;79.30;;;;;;7842993;28;20848;-89
2023/06/14 12:51:47;;;;;;;7.20;4.85;;;21.10;79.90;;;;;;7842749;28;20185;-90
2023/06/14 12:55:33;;;;;;;7.25;4.38;;;21.00;81.10;;;;;;7842289;28;20566;-90
2023/06/14 12:59:18;;;;;;;4.40;4.00;;;21.10;82.00;;;;;;7842451;28;20184;-90
2023/06/14 13:03:04;;;;;;;6.03;3.92;;;21.30;80.70;;;;;;7842395;28;20186;-91
2023/06/14 13:06:50;;;;;;;5.28;4.10;;;21.40;79.00;;;;;;7842038;28;20197;-90
2023/06/14 13:10:36;;;;;;;9.20;4.63;;;21.50;77.50;;;;;;7841994;28;20209;-90
2023/06/14 13:14:21;;;;;;;7.57;4.72;;;21.70;78.00;;;;;;7841930;28;20754;-89
2023/06/14 13:18:13;;;;;;;9.02;4.90;;;21.70;79.10;;;;;;7842437;28;20225;-89
2023/06/14 13:21:58;;;;;;;8.52;4.93;;;21.80;80.60;;;;;;7842436;28;20189;-91
2023/06/14 13:25:44;;;;;;;5.88;4.53;;;21.80;78.00;;;;;;7841222;28;20213;-90
2023/06/14 13:29:31;;;;;;;4.88;4.18;;;21.50;77.50;;;;;;7842094;28;20211;-90
2023/06/14 13:33:16;;;;;;;4.90;4.35;;;21.50;77.80;;;;;;7842995;28;20801;-90
2023/06/14 13:37:02;;;;;;;7.20;3.70;;;21.50;77.30;;;;;;7841397;28;20591;-90
2023/06/14 13:40:48;;;;;;;6.80;4.10;;;21.70;77.60;;;;;;7841445;28;20196;-89
2023/06/14 13:44:58;;;;;;;5.15;3.80;;;21.80;78.00;;;;;;7841784;28;20294;-90
2023/06/14 13:48:46;;;;;;;6.05;3.35;;;21.80;76.30;;;;;;7829501;28;20225;-90
2023/06/14 13:52:32;;;;;;;3.88;3.33;;;21.90;75.30;;;;;;7840088;28;20180;-90
2023/06/14 13:56:18;;;;;;;3.92;3.13;;;22.00;76.00;;;;;;7841088;28;20198;-90
2023/06/14 14:00:05;;;;;;;6.40;3.22;;;22.10;75.40;;;;;;7840832;28;20185;-89
2023/06/14 14:03:50;;;;;;;4.38;3.28;;;22.30;76.80;;;;;;7840175;28;20300;-89
2023/06/14 14:07:38;;;;;;;3.70;3.33;;;22.30;75.90;;;;;;7840539;28;20194;-89
2023/06/14 14:11:23;;;;;;;4.35;3.42;;;22.20;73.40;;;;;;7839652;28;20289;-90
2023/06/14 14:15:12;;;;;;;7.38;3.78;;;22.10;73.60;;;;;;7840028;28;20676;-89
2023/06/14 14:18:58;;;;;;;4.00;3.65;;;22.10;73.40;;;;;;7840012;28;20182;-90
2023/06/14 14:22:44;;;;;;;7.05;3.63;;;22.20;75.40;;;;;;7839781;28;20217;-89
2023/06/14 14:26:30;;;;;;;3.38;3.08;;;22.30;73.40;;;;;;7839703;28;20205;-89
2023/06/14 14:30:23;;;;;;;5.03;3.17;;;22.20;71.90;;;;;;7839623;28;20768;-90
2023/06/14 14:34:08;;;;;;;5.32;3.05;;;22.20;74.10;;;;;;7839947;28;20205;-91
2023/06/14 14:37:54;;;;;;;3.97;3.40;;;22.40;72.60;;;;;;7839210;28;20181;-90
2023/06/14 14:41:40;;;;;;;3.58;3.00;;;22.50;69.60;;;;;;7840923;28;20174;-90
2023/06/14 14:45:30;;;;;;;5.60;2.97;;;22.60;69.10;;;;;;7839695;28;20226;-90
2023/06/14 14:49:18;;;;;;;6.15;3.10;;;22.70;69.30;;;;;;7838982;28;20623;-90
2023/06/14 14:53:28;;;;;;;6.90;3.25;;;22.70;69.10;;;;;;7838076;28;20190;-91
2023/06/14 14:57:14;;;;;;;5.20;3.42;;;22.80;68.20;;;;;;7838250;28;20199;-91
2023/06/14 15:01:06;;;;;;;3.60;3.30;;;22.90;68.00;;;;;;7839055;28;20174;-90
2023/06/14 15:04:52;;;;;;;4.45;3.25;;;22.90;68.40;;;;;;7837387;28;20279;-90
2023/06/14 15:08:38;;;;;;;5.57;3.20;;;22.80;68.20;;;;;;7838762;28;20198;-91
2023/06/14 15:12:23;;;;;;;3.80;3.35;;;22.80;67.90;;;;;;7837918;28;20898;-92
2023/06/14 15:16:09;;;;;;;5.72;3.45;;;22.80;67.80;;;;;;7835435;28;20206;-91
2023/06/14 15:19:55;;;;;;;5.95;3.60;;;22.80;68.00;;;;;;7833829;28;20869;-89
2023/06/14 15:23:40;;;;;;;4.88;3.63;;;22.90;67.10;;;;;;7831072;28;20210;-91
2023/06/14 15:27:27;;;;;;;4.45;3.42;;;22.80;67.10;;;;;;7838390;28;20205;-91
2023/06/14 15:31:13;;;;;;;3.22;2.92;;;22.80;65.40;;;;;;7838088;28;20201;-90
2023/06/14 15:34:59;;;;;;;5.18;3.38;;;22.80;66.40;;;;;;7839819;28;20205;-90
2023/06/14 15:38:44;;;;;;;5.10;3.63;;;22.60;65.00;;;;;;7829286;28;20651;-91
2023/06/14 15:42:30;;;;;;;5.70;3.45;;;22.60;67.00;;;;;;7834486;28;20243;-90
2023/06/14 15:46:16;;;;;;;9.40;4.88;;;22.80;67.40;;;;;;7840214;28;20217;-91
2023/06/14 15:50:04;;;;;;;11.88;4.68;;;22.90;65.20;;;;;;7839139;28;20209;-91
2023/06/14 15:53:52;;;;;;;7.25;4.57;;;22.90;64.70;;;;;;7841048;28;20201;-91
2023/06/14 15:57:38;;;;;;;14.07;6.40;;;22.90;64.80;;;;;;7837540;28;20178;-91
2023/06/14 16:01:32;;;;;;;6.72;4.72;;;23.00;64.80;;;;;;7838281;28;20247;-91
2023/06/14 16:05:18;;;;;;;4.43;4.03;;;22.90;63.80;;;;;;7837373;28;20219;-91
2023/06/14 16:09:04;;;;;;;5.13;4.60;;;22.90;66.10;;;;;;7837626;28;20209;-92
2023/06/14 16:12:49;;;;;;;5.25;4.65;;;23.00;66.00;;;;;;7837037;28;20231;-91
2023/06/14 16:16:35;;;;;;;5.95;4.55;;;23.00;65.10;;;;;;7841155;28;20676;-92
2023/06/14 16:20:21;;;;;;;4.93;4.43;;;23.10;66.10;;;;;;7843700;28;20871;-91
2023/06/14 16:24:08;;;;;;;5.10;4.35;;;23.10;65.60;;;;;;7843535;28;20286;-91
2023/06/14 16:27:53;;;;;;;6.90;4.70;;;23.10;64.30;;;;;;7843820;28;20178;-92
2023/06/14 16:31:40;;;;;;;5.30;3.95;;;23.10;63.80;;;;;;7843819;28;20729;-91
2023/06/14 16:35:26;;;;;;;4.47;4.07;;;23.10;65.20;;;;;;7842668;28;20198;-91
2023/06/14 16:39:12;;;;;;;4.85;4.28;;;23.10;66.10;;;;;;7842680;28;20194;-91
2023/06/14 16:42:57;;;;;;;5.50;4.68;;;23.20;66.00;;;;;;7843852;28;20276;-91
2023/06/14 16:46:43;;;;;;;5.78;4.38;;;23.30;66.10;;;;;;7843798;28;20198;-91
2023/06/14 16:50:29;;;;;;;5.60;4.47;;;23.30;66.10;;;;;;7843358;28;20212;-91
2023/06/14 16:54:15;;;;;;;4.90;4.38;;;23.10;65.20;;;;;;7842513;28;20197;-91
2023/06/14 16:58:01;;;;;;;4.60;4.20;;;23.30;66.10;;;;;;7842848;28;20170;-93
2023/06/14 17:01:50;;;;;;;4.78;4.20;;;23.20;65.50;;;;;;7842932;28;20178;-91
2023/06/14 17:05:36;;;;;;;14.23;5.00;;;23.20;65.00;;;;;;7841625;28;20223;-91
2023/06/14 17:09:21;;;;;;;6.93;4.57;;;23.20;65.70;;;;;;7835046;28;22355;-91
2023/06/14 17:13:07;;;;;;;7.00;4.47;;;23.10;66.20;;;;;;7842208;28;20643;-92
2023/06/14 17:16:53;;;;;;;6.07;4.65;;;23.20;66.60;;;;;;7842154;28;20186;-91
2023/06/14 17:20:38;;;;;;;5.47;4.85;;;23.20;66.10;;;;;;7841993;28;20831;-91
2023/06/14 17:24:24;;;;;;;6.03;4.57;;;23.10;65.90;;;;;;7841791;28;20296;-91
2023/06/14 17:28:10;;;;;;;5.32;4.78;;;23.10;65.90;;;;;;7841878;28;20185;-91
2023/06/14 17:31:55;;;;;;;5.38;4.82;;;23.10;66.90;;;;;;7841330;28;20193;-91
2023/06/14 17:35:41;;;;;;;5.65;4.68;;;23.00;66.80;;;;;;7834385;28;20199;-90
2023/06/14 17:39:36;;;;;;;5.40;4.70;;;23.00;67.10;;;;;;7832525;28;20189;-91
2023/06/14 17:43:23;;;;;;;7.07;4.65;;;23.10;68.40;;;;;;7839060;28;20240;-91
2023/06/14 17:47:08;;;;;;;5.28;4.05;;;23.10;68.40;;;;;;7839352;28;20209;-91
2023/06/14 17:50:54;;;;;;;4.65;4.13;;;23.10;66.70;;;;;;7854293;28;20686;-90
2023/06/14 17:54:40;;;;;;;6.63;4.97;;;23.00;67.40;;;;;;7832481;28;20207;-91
2023/06/14 17:58:26;;;;;;;6.53;4.22;;;23.00;68.50;;;;;;7838354;28;20555;-91
2023/06/14 18:02:14;;;;;;;5.05;4.07;;;23.10;69.00;;;;;;7839322;28;20182;-90
2023/06/14 18:06:00;;;;;;;14.30;4.40;;;23.00;67.50;;;;;;7831912;28;20263;-91
2023/06/14 18:09:45;;;;;;;5.28;4.05;;;22.90;67.70;;;;;;7840291;28;20214;-91
2023/06/14 18:13:37;;;;;;;6.20;3.97;;;22.80;68.30;;;;;;7839938;28;20252;-92
2023/06/14 18:17:23;;;;;;;6.40;4.00;;;22.70;69.80;;;;;;7840221;28;20639;-92
2023/06/14 18:21:08;;;;;;;6.72;4.00;;;22.70;69.70;;;;;;7841788;28;20182;-92
2023/06/14 18:24:54;;;;;;;4.75;3.88;;;22.60;70.60;;;;;;7840063;28;20587;-90
2023/06/14 18:28:40;;;;;;;4.40;3.67;;;22.60;70.80;;;;;;7839781;28;20293;-90
2023/06/14 18:32:29;;;;;;;5.93;3.78;;;22.60;71.70;;;;;;7839804;28;20181;-90
2023/06/14 18:36:15;;;;;;;4.07;3.67;;;22.70;72.80;;;;;;7839546;28;20201;-90
2023/06/14 18:40:03;;;;;;;7.30;3.63;;;22.70;73.40;;;;;;7826421;28;20691;-90
2023/06/14 18:43:49;;;;;;;4.15;3.75;;;22.80;74.40;;;;;;7808894;28;20289;-90
2023/06/14 18:47:35;;;;;;;5.20;3.85;;;22.80;74.80;;;;;;7833281;28;20182;-90
2023/06/14 18:51:20;;;;;;;5.80;3.95;;;22.80;75.70;;;;;;7839043;28;20197;-90
2023/06/14 18:55:06;;;;;;;4.63;3.60;;;22.80;75.70;;;;;;7839099;28;20820;-90
2023/06/14 18:58:52;;;;;;;4.88;3.60;;;22.80;76.50;;;;;;7838549;28;20178;-91
2023/06/14 19:02:39;;;;;;;3.70;3.40;;;22.70;77.00;;;;;;7838434;28;20271;-91
2023/06/14 19:06:25;;;;;;;3.42;3.13;;;22.60;76.60;;;;;;7833753;28;20222;-90
2023/06/14 19:10:11;;;;;;;4.47;3.13;;;22.60;77.70;;;;;;7838303;28;20194;-90
2023/06/14 19:13:56;;;;;;;3.72;3.17;;;22.50;77.80;;;;;;7837113;28;20304;-90
2023/06/14 19:17:55;;;;;;;4.88;3.15;;;22.50;78.40;;;;;;7832797;28;20181;-90
2023/06/14 19:21:41;;;;;;;5.13;3.30;;;22.40;78.00;;;;;;7837780;28;20219;-90
2023/06/14 19:25:27;;;;;;;5.65;3.40;;;22.30;77.70;;;;;;7829279;28;20269;-90
2023/06/14 19:29:12;;;;;;;6.05;3.58;;;22.20;78.20;;;;;;7825536;28;20202;-90
2023/06/14 19:32:58;;;;;;;4.80;3.42;;;22.10;78.10;;;;;;7836993;28;20644;-89
2023/06/14 19:36:44;;;;;;;4.07;3.42;;;22.10;78.40;;;;;;7837635;28;20178;-89
2023/06/14 19:40:29;;;;;;;5.15;3.15;;;22.00;78.70;;;;;;7837092;28;20194;-90